Time;durP1;ratioP1;P1;durP2;ratioP2;P2;SDS_P1;SDS_P2;PMS_P1;PMS_P2;Temp;Humidity;BMP_temperature;BMP_pressure;BME280_temperature;BME280_humidity;BME280_pressure;Samples;Min_cycle;Max_cycle;Signal;HPM_P1;HPM_P2
2022/04/14 00:02:05;;;;;;;11.32;7.88;;;11.60;99.90;;;;;;4921656;29;20031;-94
2022/04/14 00:04:35;;;;;;;12.70;7.80;;;11.60;99.90;;;;;;4954344;29;20039;-93
2022/04/14 00:07:01;;;;;;;11.13;7.88;;;11.50;99.90;;;;;;4910240;29;20054;-94
2022/04/14 00:09:28;;;;;;;12.40;8.13;;;11.50;99.90;;;;;;4929908;29;20040;-93
2022/04/14 00:11:54;;;;;;;11.68;7.43;;;11.50;99.90;;;;;;4912601;29;20048;-93
2022/04/14 00:14:20;;;;;;;11.75;8.05;;;11.50;99.90;;;;;;4915375;29;20095;-93
2022/04/14 00:16:46;;;;;;;13.05;8.70;;;11.50;99.90;;;;;;4916685;29;20052;-93
2022/04/14 00:19:11;;;;;;;13.70;9.32;;;11.50;99.90;;;;;;4928752;29;20420;-93
2022/04/14 00:21:37;;;;;;;12.65;8.57;;;11.50;99.90;;;;;;4916453;29;20052;-93
2022/04/14 00:24:03;;;;;;;13.75;8.52;;;11.50;99.90;;;;;;4928345;29;20529;-93
2022/04/14 00:26:28;;;;;;;15.05;9.40;;;11.50;99.90;;;;;;4913908;29;20047;-93
2022/04/14 00:28:54;;;;;;;12.82;9.00;;;11.50;99.90;;;;;;4926783;29;20040;-93
2022/04/14 00:31:19;;;;;;;13.93;9.98;;;11.50;99.90;;;;;;4927290;29;20043;-93
2022/04/14 00:33:45;;;;;;;13.98;9.65;;;11.50;99.90;;;;;;4915010;29;20051;-93
2022/04/14 00:36:11;;;;;;;13.27;9.80;;;11.50;99.90;;;;;;4931581;29;20052;-93
2022/04/14 00:38:36;;;;;;;13.90;10.60;;;11.40;99.90;;;;;;4930428;29;20035;-93
2022/04/14 00:41:02;;;;;;;14.43;10.93;;;11.50;99.90;;;;;;4919908;29;20047;-93
2022/04/14 00:43:35;;;;;;;15.55;11.07;;;11.40;99.90;;;;;;4919860;29;20047;-93
2022/04/14 00:46:02;;;;;;;16.27;12.38;;;11.50;99.90;;;;;;4934979;29;20051;-93
2022/04/14 00:48:30;;;;;;;16.95;12.18;;;11.50;99.90;;;;;;4946934;29;20044;-93
2022/04/14 00:50:56;;;;;;;16.80;12.45;;;11.40;99.90;;;;;;4951693;29;20023;-94
2022/04/14 00:53:22;;;;;;;14.68;12.07;;;11.50;99.90;;;;;;4928110;29;20047;-94
2022/04/14 00:55:50;;;;;;;16.80;11.73;;;11.40;99.90;;;;;;4932075;29;20035;-94
2022/04/14 00:58:15;;;;;;;16.45;12.57;;;11.40;99.90;;;;;;4930986;29;20442;-94
2022/04/14 01:00:41;;;;;;;16.95;12.48;;;11.30;99.90;;;;;;4930077;29;20078;-94
2022/04/14 01:03:07;;;;;;;16.50;12.20;;;11.30;99.90;;;;;;4927157;29;20051;-94
2022/04/14 01:05:33;;;;;;;17.02;12.05;;;11.30;99.90;;;;;;4924199;29;20647;-94
2022/04/14 01:07:59;;;;;;;15.73;12.70;;;11.20;99.90;;;;;;4929132;29;20127;-94
2022/04/14 01:10:25;;;;;;;18.30;13.52;;;11.20;99.90;;;;;;4930279;29;20182;-94
2022/04/14 01:12:52;;;;;;;16.55;13.20;;;11.10;99.90;;;;;;4924950;29;20047;-94
2022/04/14 01:15:18;;;;;;;16.60;12.90;;;11.00;99.90;;;;;;4908215;29;21145;-94
2022/04/14 01:17:44;;;;;;;17.38;13.95;;;11.00;99.90;;;;;;4928295;29;20047;-94
2022/04/14 01:20:13;;;;;;;16.90;13.35;;;11.00;99.90;;;;;;4918297;29;20055;-93
2022/04/14 01:22:45;;;;;;;16.20;12.95;;;11.00;99.90;;;;;;4929556;29;20119;-94
2022/04/14 01:25:11;;;;;;;18.17;13.65;;;10.90;99.90;;;;;;4911001;29;20189;-94
2022/04/14 01:27:37;;;;;;;16.10;13.65;;;10.90;99.90;;;;;;4924667;29;20126;-94
2022/04/14 01:30:03;;;;;;;17.25;13.55;;;10.80;99.90;;;;;;4900666;29;20142;-93
2022/04/14 01:32:28;;;;;;;17.88;14.20;;;10.80;99.90;;;;;;4908640;29;20417;-94
2022/04/14 01:34:54;;;;;;;19.20;15.20;;;10.70;99.90;;;;;;4928190;29;20063;-93
2022/04/14 01:37:20;;;;;;;19.10;15.23;;;10.70;99.90;;;;;;4923746;29;20040;-94
2022/04/14 01:39:45;;;;;;;19.00;14.77;;;10.70;99.90;;;;;;4923169;29;20039;-94
2022/04/14 01:42:11;;;;;;;22.50;16.85;;;10.70;99.90;;;;;;4924040;29;20187;-93
2022/04/14 01:44:37;;;;;;;18.60;15.10;;;10.60;99.90;;;;;;4902987;29;20058;-93
2022/04/14 01:47:03;;;;;;;20.00;15.60;;;10.60;99.90;;;;;;4920979;29;20465;-93
2022/04/14 01:49:29;;;;;;;18.52;14.93;;;10.50;99.90;;;;;;4913647;29;20442;-94
2022/04/14 01:51:54;;;;;;;20.40;15.30;;;10.50;99.90;;;;;;4922841;29;20048;-94
2022/04/14 01:54:20;;;;;;;18.45;14.60;;;10.50;99.90;;;;;;4920212;29;20048;-94
2022/04/14 01:56:46;;;;;;;18.15;15.05;;;10.50;99.90;;;;;;4908718;29;20043;-93
2022/04/14 01:59:12;;;;;;;19.05;15.38;;;10.40;99.90;;;;;;4907838;29;20047;-93
2022/04/14 02:01:37;;;;;;;20.63;16.60;;;10.40;99.90;;;;;;4927636;29;20048;-93
2022/04/14 02:04:05;;;;;;;18.60;15.32;;;10.40;99.90;;;;;;4924790;29;20512;-93
2022/04/14 02:06:30;;;;;;;23.73;19.38;;;10.40;99.90;;;;;;4921249;29;20048;-93
2022/04/14 02:08:56;;;;;;;19.27;17.20;;;10.30;99.90;;;;;;4897012;29;20105;-92
2022/04/14 02:11:22;;;;;;;24.67;19.95;;;10.40;99.90;;;;;;4923087;29;20057;-93
2022/04/14 02:13:47;;;;;;;21.92;17.70;;;10.40;99.90;;;;;;4909354;29;20055;-93
2022/04/14 02:16:13;;;;;;;22.77;19.60;;;10.40;99.90;;;;;;4898937;29;20052;-93
2022/04/14 02:18:38;;;;;;;24.60;20.88;;;10.40;99.90;;;;;;4925037;29;20229;-94
2022/04/14 02:21:04;;;;;;;22.75;20.05;;;10.40;99.90;;;;;;4923840;29;20044;-94
2022/04/14 02:23:29;;;;;;;24.80;19.88;;;10.40;99.90;;;;;;4924077;29;20094;-93
2022/04/14 02:25:55;;;;;;;22.88;20.02;;;10.40;99.90;;;;;;4923037;29;20043;-93
2022/04/14 02:28:21;;;;;;;22.25;19.52;;;10.40;99.90;;;;;;4920871;29;20074;-93
2022/04/14 02:30:47;;;;;;;25.08;21.08;;;10.40;99.90;;;;;;4921791;29;20066;-93
2022/04/14 02:33:13;;;;;;;22.60;18.30;;;10.40;99.90;;;;;;4926110;29;20058;-93
2022/04/14 02:35:38;;;;;;;24.77;21.60;;;10.30;99.90;;;;;;4926350;29;20075;-94
2022/04/14 02:38:04;;;;;;;24.17;20.73;;;10.30;99.90;;;;;;4919051;29;20036;-94
2022/04/14 02:40:30;;;;;;;23.90;20.55;;;10.30;99.90;;;;;;4909110;29;20135;-94
2022/04/14 02:42:57;;;;;;;25.15;22.17;;;10.30;99.90;;;;;;4944386;29;20164;-93
2022/04/14 02:45:23;;;;;;;22.15;19.45;;;10.30;99.90;;;;;;4952505;29;20056;-93
2022/04/14 02:47:49;;;;;;;26.25;21.35;;;10.30;99.90;;;;;;4949490;29;20104;-93
2022/04/14 02:50:15;;;;;;;25.95;22.92;;;10.20;99.90;;;;;;4945187;29;20048;-93
2022/04/14 02:52:41;;;;;;;23.05;19.95;;;10.20;99.90;;;;;;4945108;29;20047;-94
2022/04/14 02:55:07;;;;;;;23.98;20.23;;;10.20;99.90;;;;;;4945660;29;20055;-93
2022/04/14 02:57:32;;;;;;;22.08;19.45;;;10.20;99.90;;;;;;4908730;29;20119;-93
2022/04/14 02:59:58;;;;;;;22.75;19.60;;;10.10;99.90;;;;;;4930420;29;20055;-93
2022/04/14 03:02:24;;;;;;;23.85;21.00;;;10.10;99.90;;;;;;4930780;29;20043;-93
2022/04/14 03:04:50;;;;;;;24.55;20.83;;;10.00;99.90;;;;;;4925160;29;20054;-93
2022/04/14 03:07:15;;;;;;;22.73;20.27;;;10.00;99.90;;;;;;4920392;29;20520;-94
2022/04/14 03:09:41;;;;;;;24.75;21.30;;;9.90;99.90;;;;;;4906128;29;20052;-93
2022/04/14 03:12:07;;;;;;;25.40;22.67;;;9.90;99.90;;;;;;4912670;29;20486;-93
2022/04/14 03:14:33;;;;;;;26.65;23.27;;;9.80;99.90;;;;;;4919406;29;20055;-93
2022/04/14 03:16:58;;;;;;;28.05;25.00;;;9.80;99.90;;;;;;4904577;29;20099;-93
2022/04/14 03:19:25;;;;;;;30.67;23.60;;;9.80;99.90;;;;;;4923294;29;20139;-93
2022/04/14 03:21:50;;;;;;;29.55;25.67;;;9.80;99.90;;;;;;4900988;29;20044;-93
2022/04/14 03:24:16;;;;;;;29.10;25.10;;;9.80;99.90;;;;;;4925116;29;20829;-93
2022/04/14 03:26:41;;;;;;;30.00;25.90;;;9.80;99.90;;;;;;4922295;29;20090;-93
2022/04/14 03:29:07;;;;;;;30.70;26.90;;;9.90;99.90;;;;;;4905539;29;20406;-93
2022/04/14 03:31:33;;;;;;;30.48;26.05;;;9.90;99.90;;;;;;4910838;29;20126;-93
2022/04/14 03:33:58;;;;;;;32.13;28.80;;;9.90;99.90;;;;;;4924812;29;20456;-93
2022/04/14 03:36:24;;;;;;;35.22;31.38;;;9.90;99.90;;;;;;4929045;29;20453;-93
2022/04/14 03:38:50;;;;;;;32.28;28.67;;;9.90;99.90;;;;;;4923578;29;20047;-93
2022/04/14 03:41:15;;;;;;;34.50;30.75;;;9.90;99.90;;;;;;4910466;29;20433;-93
2022/04/14 03:43:41;;;;;;;36.97;31.15;;;9.90;99.90;;;;;;4919490;29;20050;-92
2022/04/14 03:46:06;;;;;;;38.20;32.70;;;9.90;99.90;;;;;;4903151;29;20143;-93
2022/04/14 03:48:32;;;;;;;33.33;29.40;;;10.00;99.90;;;;;;4916878;29;20456;-93
2022/04/14 03:50:58;;;;;;;36.88;31.48;;;10.00;99.90;;;;;;4921111;29;20331;-93
2022/04/14 03:53:24;;;;;;;36.58;31.98;;;10.00;99.90;;;;;;4925755;29;20040;-93
2022/04/14 03:55:50;;;;;;;37.22;32.83;;;10.00;99.90;;;;;;4926398;29;20043;-93
2022/04/14 03:58:15;;;;;;;36.22;32.33;;;9.90;99.90;;;;;;4918448;29;20051;-93
2022/04/14 04:00:41;;;;;;;35.95;32.00;;;9.90;99.90;;;;;;4917617;29;20052;-93
2022/04/14 04:03:12;;;;;;;38.30;30.98;;;10.00;99.90;;;;;;4917041;29;20048;-93
2022/04/14 04:05:38;;;;;;;36.38;31.75;;;9.90;99.90;;;;;;4923555;29;20358;-93
2022/04/14 04:08:07;;;;;;;37.67;32.50;;;9.90;99.90;;;;;;4904844;29;20071;-92
2022/04/14 04:10:33;;;;;;;32.30;28.80;;;9.90;99.90;;;;;;4918205;29;20464;-93
2022/04/14 04:12:59;;;;;;;30.58;26.98;;;9.80;99.90;;;;;;4924576;29;20071;-92
2022/04/14 04:15:24;;;;;;;31.30;27.90;;;9.80;99.90;;;;;;4908322;29;21502;-93
2022/04/14 04:17:51;;;;;;;33.60;29.52;;;9.70;99.90;;;;;;4920138;29;20059;-93
2022/04/14 04:20:18;;;;;;;32.78;29.15;;;9.60;99.90;;;;;;4922618;29;20114;-92
2022/04/14 04:22:43;;;;;;;39.63;31.52;;;9.60;99.90;;;;;;4930354;29;20052;-92
2022/04/14 04:25:10;;;;;;;29.55;21.45;;;9.60;99.90;;;;;;4926218;29;20040;-93
2022/04/14 04:27:36;;;;;;;31.23;27.85;;;9.50;99.90;;;;;;4938670;29;20169;-93
2022/04/14 04:30:06;;;;;;;30.88;27.48;;;9.40;99.90;;;;;;4907785;29;20040;-92
2022/04/14 04:32:33;;;;;;;33.72;28.65;;;9.40;99.90;;;;;;4891536;29;20043;-93
2022/04/14 04:35:03;;;;;;;32.47;28.33;;;9.40;99.90;;;;;;4918907;29;20075;-94
2022/04/14 04:37:29;;;;;;;27.53;20.10;;;9.40;99.90;;;;;;4926231;29;20051;-95
2022/04/14 04:39:55;;;;;;;31.85;28.38;;;9.20;99.90;;;;;;4913034;29;20063;-94
2022/04/14 04:42:21;;;;;;;32.97;29.13;;;9.20;99.90;;;;;;4908861;29;20048;-92
2022/04/14 04:44:46;;;;;;;32.30;28.80;;;9.20;99.90;;;;;;4922515;29;20112;-92
2022/04/14 04:47:12;;;;;;;30.58;27.02;;;9.10;99.90;;;;;;4928416;29;20046;-93
2022/04/14 04:49:37;;;;;;;30.13;22.27;;;9.10;99.90;;;;;;4924587;29;20423;-93
2022/04/14 04:52:06;;;;;;;31.25;26.55;;;9.00;99.90;;;;;;4910336;29;20039;-93
2022/04/14 04:54:31;;;;;;;31.92;28.42;;;9.00;99.90;;;;;;4926116;29;20091;-93
2022/04/14 04:56:57;;;;;;;32.90;29.38;;;9.00;99.90;;;;;;4947914;29;20056;-92
2022/04/14 04:59:22;;;;;;;32.17;28.70;;;8.90;99.90;;;;;;4943322;29;20099;-91
2022/04/14 05:01:48;;;;;;;34.13;30.52;;;8.90;99.90;;;;;;4933857;29;20090;-94
2022/04/14 05:04:13;;;;;;;33.25;29.67;;;8.90;99.90;;;;;;4927658;29;20039;-94
2022/04/14 05:06:39;;;;;;;33.08;29.25;;;8.90;99.90;;;;;;4902515;29;20036;-93
2022/04/14 05:09:05;;;;;;;32.80;28.98;;;8.90;99.90;;;;;;4920199;29;20104;-93
2022/04/14 05:11:34;;;;;;;34.40;30.70;;;8.90;99.90;;;;;;4909162;29;20114;-94
2022/04/14 05:14:00;;;;;;;30.38;19.83;;;8.90;99.90;;;;;;4915339;29;20056;-94
2022/04/14 05:16:26;;;;;;;35.92;31.25;;;8.90;99.90;;;;;;4910867;29;20044;-93
2022/04/14 05:18:51;;;;;;;40.58;34.40;;;8.90;99.90;;;;;;4901090;29;20048;-93
2022/04/14 05:21:17;;;;;;;36.60;31.95;;;8.90;99.90;;;;;;4902559;29;20405;-92
2022/04/14 05:23:43;;;;;;;39.15;32.63;;;8.90;99.90;;;;;;4904115;29;20106;-94
2022/04/14 05:26:09;;;;;;;37.63;25.23;;;8.90;99.90;;;;;;4910553;29;20402;-94
2022/04/14 05:28:34;;;;;;;49.55;40.38;;;8.90;99.90;;;;;;4909777;29;20044;-92
2022/04/14 05:31:00;;;;;;;46.92;31.25;;;9.00;99.90;;;;;;4918130;29;20034;-94
2022/04/14 05:33:26;;;;;;;44.42;39.13;;;9.00;99.90;;;;;;4936555;29;20051;-93
2022/04/14 05:35:51;;;;;;;48.60;38.92;;;9.10;99.90;;;;;;4930002;29;20063;-96
2022/04/14 05:38:17;;;;;;;45.78;32.40;;;9.10;99.90;;;;;;4928733;29;20026;-93
2022/04/14 05:40:45;;;;;;;54.40;43.97;;;9.10;99.90;;;;;;4928118;29;20028;-94
2022/04/14 05:43:30;;;;;;;53.42;44.65;;;9.20;99.90;;;;;;4916570;29;20490;-94
2022/04/14 05:45:56;;;;;;;47.63;33.40;;;9.30;99.90;;;;;;4893473;29;20051;-93
2022/04/14 05:48:21;;;;;;;46.97;41.35;;;9.30;99.90;;;;;;4911032;29;20044;-92
2022/04/14 05:50:49;;;;;;;48.05;40.80;;;9.40;99.90;;;;;;4890281;29;20496;-94
2022/04/14 05:53:16;;;;;;;52.25;44.40;;;9.50;99.90;;;;;;4917455;29;20476;-93
2022/04/14 05:55:42;;;;;;;50.42;43.47;;;9.60;99.90;;;;;;4913308;29;20105;-95
2022/04/14 05:58:07;;;;;;;51.53;44.88;;;9.70;99.90;;;;;;4917522;29;20119;-95
2022/04/14 06:00:34;;;;;;;52.25;44.05;;;9.70;99.90;;;;;;4906965;29;20055;-93
2022/04/14 06:03:01;;;;;;;54.75;44.63;;;9.80;99.90;;;;;;4904577;29;20430;-91
2022/04/14 06:05:27;;;;;;;51.67;44.22;;;9.90;99.90;;;;;;4904625;29;20056;-93
2022/04/14 06:07:53;;;;;;;48.88;43.60;;;10.00;99.90;;;;;;4901431;29;20120;-93
2022/04/14 06:10:19;;;;;;;44.33;39.20;;;10.00;99.90;;;;;;4903964;29;20052;-91
2022/04/14 06:12:45;;;;;;;46.28;40.35;;;10.10;99.90;;;;;;4900027;29;20528;-91
2022/04/14 06:15:10;;;;;;;50.08;43.03;;;10.10;99.90;;;;;;4926076;29;20059;-90
2022/04/14 06:17:36;;;;;;;50.63;43.05;;;10.20;99.90;;;;;;4919410;29;20070;-90
2022/04/14 06:20:03;;;;;;;44.17;39.33;;;10.30;99.90;;;;;;4908432;29;20461;-90
2022/04/14 06:22:29;;;;;;;45.15;39.50;;;10.30;99.90;;;;;;4926516;29;20065;-89
2022/04/14 06:24:57;;;;;;;45.03;38.58;;;10.50;99.90;;;;;;4907072;29;20065;-91
2022/04/14 06:27:23;;;;;;;46.15;40.40;;;10.50;99.90;;;;;;4896668;29;20063;-92
2022/04/14 06:29:49;;;;;;;48.05;41.33;;;10.70;99.90;;;;;;4907359;29;20423;-93
2022/04/14 06:32:14;;;;;;;46.63;40.00;;;10.70;99.90;;;;;;4926149;29;20570;-93
2022/04/14 06:34:40;;;;;;;48.03;40.78;;;10.80;99.90;;;;;;4910532;29;20048;-92
2022/04/14 06:37:05;;;;;;;46.55;39.92;;;10.90;99.90;;;;;;4910415;29;20114;-96
2022/04/14 06:39:31;;;;;;;49.28;40.55;;;11.00;99.90;;;;;;4922216;29;20435;-90
2022/04/14 06:41:56;;;;;;;48.88;39.90;;;11.10;99.90;;;;;;4920250;29;20155;-92
2022/04/14 06:44:22;;;;;;;44.90;39.78;;;11.20;99.90;;;;;;4910396;29;20046;-90
2022/04/14 06:46:47;;;;;;;42.00;37.15;;;11.30;99.90;;;;;;4919400;29;20549;-92
2022/04/14 06:49:13;;;;;;;43.08;37.75;;;11.30;99.90;;;;;;4914116;29;20311;-91
2022/04/14 06:51:38;;;;;;;41.38;36.63;;;11.50;99.90;;;;;;4921139;29;20039;-91
2022/04/14 06:54:04;;;;;;;41.20;35.40;;;11.50;99.90;;;;;;4890242;29;20057;-92
2022/04/14 06:56:29;;;;;;;43.40;36.78;;;11.70;99.90;;;;;;4905121;29;20048;-91
2022/04/14 06:58:55;;;;;;;40.78;35.53;;;11.80;99.90;;;;;;4924462;29;20052;-92
2022/04/14 07:01:23;;;;;;;41.22;36.03;;;11.80;99.90;;;;;;4916142;29;20048;-91
2022/04/14 07:03:48;;;;;;;37.22;33.22;;;11.90;99.90;;;;;;4898228;29;20131;-91
2022/04/14 07:06:14;;;;;;;42.08;33.97;;;11.90;99.90;;;;;;4905679;29;20661;-91
2022/04/14 07:08:39;;;;;;;38.70;34.33;;;11.90;99.90;;;;;;4904450;29;20059;-94
2022/04/14 07:11:05;;;;;;;39.25;32.47;;;12.10;99.90;;;;;;4910026;29;20126;-91
2022/04/14 07:13:31;;;;;;;38.47;33.22;;;12.10;99.90;;;;;;4914660;29;20481;-91
2022/04/14 07:15:57;;;;;;;37.65;32.00;;;12.10;99.90;;;;;;4917659;29;20184;-89
2022/04/14 07:18:24;;;;;;;37.47;33.13;;;12.20;99.90;;;;;;4925588;29;20083;-90
2022/04/14 07:20:49;;;;;;;35.47;31.23;;;12.30;99.90;;;;;;4902775;29;20064;-90
2022/04/14 07:23:15;;;;;;;34.42;29.98;;;12.40;99.90;;;;;;4916143;29;20530;-91
2022/04/14 07:25:41;;;;;;;32.45;27.38;;;12.40;99.90;;;;;;4916138;29;20040;-90
2022/04/14 07:28:07;;;;;;;36.70;28.52;;;12.50;99.90;;;;;;4914872;29;20059;-90
2022/04/14 07:30:33;;;;;;;32.58;28.20;;;12.60;99.90;;;;;;4903575;29;20052;-91
2022/04/14 07:33:00;;;;;;;30.40;26.67;;;12.70;99.90;;;;;;4917465;29;20044;-90
2022/04/14 07:35:26;;;;;;;28.98;25.88;;;12.70;99.90;;;;;;4919115;29;20056;-92
2022/04/14 07:37:52;;;;;;;30.98;25.48;;;12.80;99.90;;;;;;4922950;29;20044;-91
2022/04/14 07:40:19;;;;;;;29.63;24.88;;;12.80;99.90;;;;;;4925960;29;20458;-90
2022/04/14 07:42:47;;;;;;;28.30;24.65;;;12.90;99.90;;;;;;4920768;29;20444;-90
2022/04/14 07:45:15;;;;;;;28.00;23.95;;;13.00;99.90;;;;;;4923110;29;20067;-92
2022/04/14 07:47:42;;;;;;;30.50;24.67;;;13.10;99.90;;;;;;4925002;29;20103;-92
2022/04/14 07:50:16;;;;;;;28.08;22.35;;;13.20;99.90;;;;;;4919322;29;20526;-90
2022/04/14 07:52:54;;;;;;;27.52;21.90;;;13.20;99.90;;;;;;4908053;29;20043;-93
2022/04/14 07:55:22;;;;;;;25.10;22.35;;;13.30;99.90;;;;;;4911000;29;20127;-91
2022/04/14 07:57:48;;;;;;;25.35;21.50;;;13.50;99.90;;;;;;4902256;29;20043;-95
2022/04/14 08:00:15;;;;;;;24.55;21.88;;;13.60;99.90;;;;;;4908981;29;20039;-95
2022/04/14 08:02:58;;;;;;;23.35;20.40;;;13.70;99.90;;;;;;4927803;29;20056;-95
2022/04/14 08:05:47;;;;;;;23.90;19.63;;;13.80;99.90;;;;;;4904178;29;20405;-95
2022/04/14 08:08:14;;;;;;;22.27;19.70;;;13.90;99.90;;;;;;4928574;29;20056;-96
2022/04/14 08:10:42;;;;;;;20.65;15.85;;;14.00;99.90;;;;;;4935505;29;20436;-94
2022/04/14 08:13:08;;;;;;;18.88;15.00;;;14.10;99.90;;;;;;4908180;29;20049;-96
2022/04/14 08:15:35;;;;;;;18.92;15.38;;;14.20;99.90;;;;;;4924207;29;20056;-95
2022/04/14 08:18:02;;;;;;;19.63;15.95;;;14.20;99.90;;;;;;4913413;29;20043;-90
2022/04/14 08:20:29;;;;;;;19.85;15.45;;;14.40;99.90;;;;;;4940305;29;20053;-92
2022/04/14 08:22:56;;;;;;;17.85;14.90;;;14.50;99.90;;;;;;4934095;29;20494;-92
2022/04/14 08:25:33;;;;;;;19.05;14.40;;;14.60;99.90;;;;;;4932480;29;20028;-92
2022/04/14 08:28:00;;;;;;;17.60;13.80;;;14.70;99.90;;;;;;4934977;29;20039;-91
2022/04/14 08:30:28;;;;;;;17.13;13.77;;;14.80;99.90;;;;;;4935206;29;20035;-91
2022/04/14 08:32:54;;;;;;;17.15;14.07;;;14.90;99.90;;;;;;4906142;29;20044;-91
2022/04/14 08:35:21;;;;;;;18.00;14.82;;;14.90;99.90;;;;;;4927047;29;20440;-91
2022/04/14 08:37:48;;;;;;;17.48;13.82;;;15.00;99.90;;;;;;4906795;29;20109;-92
2022/04/14 08:40:16;;;;;;;16.23;13.43;;;15.10;99.90;;;;;;4926740;29;20150;-92
2022/04/14 08:42:50;;;;;;;16.83;13.25;;;15.10;99.90;;;;;;4922722;29;20044;-92
2022/04/14 08:45:17;;;;;;;17.60;14.07;;;15.20;99.90;;;;;;4911183;29;20095;-92
2022/04/14 08:47:43;;;;;;;15.82;13.13;;;15.20;99.90;;;;;;4924731;29;20054;-92
2022/04/14 08:50:12;;;;;;;16.80;13.40;;;15.40;99.90;;;;;;4922802;29;20134;-92
2022/04/14 08:52:39;;;;;;;16.83;13.68;;;15.40;99.90;;;;;;4915723;29;20044;-92
2022/04/14 08:55:10;;;;;;;15.93;13.95;;;15.40;99.90;;;;;;4920375;29;20850;-92
2022/04/14 08:57:36;;;;;;;17.55;14.30;;;15.50;99.90;;;;;;4929601;29;20044;-92
2022/04/14 09:00:06;;;;;;;15.00;13.05;;;15.60;99.90;;;;;;4919687;29;20056;-91
2022/04/14 09:02:33;;;;;;;15.35;12.93;;;15.70;99.90;;;;;;4933228;29;20105;-94
2022/04/14 09:04:59;;;;;;;15.85;13.40;;;15.70;99.90;;;;;;4926348;29;20083;-92
2022/04/14 09:07:25;;;;;;;17.52;14.90;;;15.70;99.90;;;;;;4905844;29;20386;-92
2022/04/14 09:09:51;;;;;;;16.50;13.38;;;15.70;99.90;;;;;;4905649;29;20060;-92
2022/04/14 09:12:17;;;;;;;16.35;14.32;;;15.60;99.90;;;;;;4909902;29;20088;-94
2022/04/14 09:14:44;;;;;;;16.73;14.65;;;15.70;99.90;;;;;;4904479;29;20111;-91
2022/04/14 09:17:09;;;;;;;18.58;15.07;;;15.80;99.90;;;;;;4923221;29;20500;-92
2022/04/14 09:19:37;;;;;;;17.25;15.10;;;15.80;99.90;;;;;;4929964;29;20059;-93
2022/04/14 09:22:04;;;;;;;17.95;15.07;;;15.90;99.90;;;;;;4905302;29;20083;-91
2022/04/14 09:24:49;;;;;;;17.42;15.25;;;16.00;99.90;;;;;;4903592;29;20642;-92
2022/04/14 09:27:37;;;;;;;17.08;14.35;;;16.10;99.90;;;;;;4917555;29;20397;-91
2022/04/14 09:30:06;;;;;;;17.05;15.10;;;16.20;99.90;;;;;;4918426;29;20048;-93
2022/04/14 09:32:38;;;;;;;17.27;14.90;;;16.20;99.90;;;;;;4928646;29;20040;-89
2022/04/14 09:35:17;;;;;;;18.00;15.00;;;16.20;99.90;;;;;;4917294;29;20045;-90
2022/04/14 09:37:43;;;;;;;16.20;14.50;;;16.10;99.90;;;;;;4905481;29;20087;-91
2022/04/14 09:40:11;;;;;;;16.45;13.80;;;16.10;99.90;;;;;;4907106;29;20043;-89
2022/04/14 09:42:42;;;;;;;15.48;13.52;;;16.10;99.90;;;;;;4913318;29;20079;-89
2022/04/14 09:45:21;;;;;;;16.67;13.55;;;16.20;99.90;;;;;;4905991;29;20048;-88
2022/04/14 09:47:48;;;;;;;16.85;13.60;;;16.30;99.90;;;;;;4917481;29;20048;-87
2022/04/14 09:50:26;;;;;;;16.73;14.50;;;16.40;99.90;;;;;;4925437;29;20117;-92
2022/04/14 09:52:59;;;;;;;17.90;14.55;;;16.60;99.90;;;;;;4920991;29;20131;-91
2022/04/14 09:55:24;;;;;;;16.75;14.95;;;16.60;99.90;;;;;;4925094;29;20064;-90
2022/04/14 09:58:20;;;;;;;16.15;14.25;;;16.70;99.90;;;;;;4917788;29;20048;-90
2022/04/14 10:00:51;;;;;;;14.98;13.20;;;16.70;99.90;;;;;;4937185;29;20063;-91
2022/04/14 10:03:18;;;;;;;;;;;16.70;99.90;;;;;;4894848;29;20470;-91
2022/04/14 10:05:45;;;;;;;15.70;13.48;;;16.70;99.90;;;;;;4907148;29;19923;-93
2022/04/14 10:08:13;;;;;;;15.13;13.35;;;16.80;99.90;;;;;;4910543;29;20043;-91
2022/04/14 10:10:41;;;;;;;15.13;12.57;;;16.90;99.90;;;;;;4910364;29;20059;-89
2022/04/14 10:13:09;;;;;;;14.88;11.43;;;17.00;99.90;;;;;;4928090;29;20386;-90
2022/04/14 10:15:37;;;;;;;14.70;11.13;;;17.20;99.90;;;;;;4928536;29;20081;-90
2022/04/14 10:18:09;;;;;;;13.38;11.07;;;17.20;99.90;;;;;;4920510;29;20052;-89
2022/04/14 10:20:39;;;;;;;15.00;12.07;;;17.20;99.90;;;;;;4908844;29;20040;-90
2022/04/14 10:23:05;;;;;;;14.88;11.75;;;17.30;99.90;;;;;;4926378;29;20043;-90
2022/04/14 10:25:32;;;;;;;14.18;11.35;;;17.40;99.90;;;;;;4907030;29;20055;-89
2022/04/14 10:28:00;;;;;;;11.38;9.85;;;17.50;99.90;;;;;;4908615;29;20068;-92
2022/04/14 10:30:27;;;;;;;15.43;12.55;;;17.60;99.90;;;;;;4908051;29;20128;-89
2022/04/14 10:32:55;;;;;;;14.00;10.65;;;17.70;99.90;;;;;;4905002;29;20043;-95
2022/04/14 10:35:25;;;;;;;14.60;11.18;;;17.70;99.90;;;;;;4896200;29;20048;-91
2022/04/14 10:38:22;;;;;;;13.05;10.88;;;17.80;99.90;;;;;;4927933;29;20122;-92
2022/04/14 10:41:15;;;;;;;14.73;11.05;;;17.90;99.90;;;;;;4939016;28;20083;-92
2022/04/14 10:43:46;;;;;;;13.25;10.15;;;17.90;98.20;;;;;;4914536;29;20052;-90
2022/04/14 10:46:15;;;;;;;13.18;9.63;;;18.00;99.90;;;;;;4907461;29;20051;-89
2022/04/14 10:48:41;;;;;;;11.15;7.68;;;17.90;99.50;;;;;;4932325;29;20616;-91
2022/04/14 10:51:29;;;;;;;9.18;5.72;;;17.80;99.90;;;;;;4905456;29;20048;-92
2022/04/14 10:54:00;;;;;;;9.98;5.80;;;17.70;96.20;;;;;;4915503;29;20052;-93
2022/04/14 10:56:34;;;;;;;9.90;6.25;;;17.60;96.60;;;;;;4910004;29;20055;-92
2022/04/14 10:59:03;;;;;;;10.38;6.82;;;17.50;97.40;;;;;;4911260;29;20429;-88
2022/04/14 11:01:47;;;;;;;10.68;7.63;;;17.70;96.60;;;;;;4925672;29;20039;-90
2022/04/14 11:04:30;;;;;;;11.77;7.47;;;17.70;96.40;;;;;;4930070;29;20063;-94
2022/04/14 11:07:14;;;;;;;10.25;6.88;;;17.80;97.00;;;;;;4909202;29;20071;-91
2022/04/14 11:09:41;;;;;;;9.02;6.43;;;17.80;97.40;;;;;;4926350;29;20446;-90
2022/04/14 11:12:18;;;;;;;13.10;8.05;;;17.90;96.40;;;;;;4930819;29;20036;-89
2022/04/14 11:15:01;;;;;;;11.88;8.82;;;17.90;95.60;;;;;;4923838;29;20099;-89
2022/04/14 11:17:56;;;;;;;10.95;7.40;;;17.90;94.80;;;;;;4926470;29;20052;-93
2022/04/14 11:20:27;;;;;;;10.35;6.80;;;17.80;96.20;;;;;;4914749;29;20108;-93
2022/04/14 11:23:12;;;;;;;9.55;6.18;;;17.60;95.40;;;;;;4924973;29;20058;-93
2022/04/14 11:25:44;;;;;;;10.00;5.55;;;17.60;95.00;;;;;;4924090;29;20106;-94
2022/04/14 11:28:24;;;;;;;10.23;6.03;;;17.60;94.60;;;;;;4926211;29;20044;-87
2022/04/14 11:30:52;;;;;;;8.18;4.00;;;17.80;93.40;;;;;;4904573;29;20055;-92
2022/04/14 11:33:36;;;;;;;8.80;4.55;;;18.00;92.40;;;;;;4904448;29;20056;-90
2022/04/14 11:36:19;;;;;;;8.95;4.47;;;18.10;91.20;;;;;;4921270;29;20409;-89
2022/04/14 11:39:04;;;;;;;8.32;4.00;;;18.20;88.50;;;;;;4916714;29;20048;-90
2022/04/14 11:41:31;;;;;;;9.20;4.30;;;18.30;87.00;;;;;;4917355;29;20233;-91
2022/04/14 11:43:59;;;;;;;8.15;4.10;;;18.20;88.30;;;;;;4901229;29;20373;-87
2022/04/14 11:46:25;;;;;;;8.40;4.75;;;18.30;90.10;;;;;;4907823;29;20131;-89
2022/04/14 11:48:50;;;;;;;10.18;5.75;;;18.20;87.20;;;;;;4919874;29;20119;-91
2022/04/14 11:51:16;;;;;;;9.13;4.30;;;18.20;86.80;;;;;;4917893;29;20130;-87
2022/04/14 11:53:43;;;;;;;8.60;4.72;;;18.20;87.10;;;;;;4919358;29;20923;-91
2022/04/14 11:56:17;;;;;;;9.88;4.63;;;18.30;87.80;;;;;;4924527;29;20044;-88
2022/04/14 11:58:43;;;;;;;8.20;4.40;;;18.20;83.80;;;;;;4899400;29;20050;-89
2022/04/14 12:01:08;;;;;;;6.60;3.53;;;18.20;85.40;;;;;;4916396;29;20051;-90
2022/04/14 12:03:34;;;;;;;7.88;3.85;;;18.40;82.60;;;;;;4898001;29;20523;-91
2022/04/14 12:06:08;;;;;;;8.35;3.88;;;18.40;82.20;;;;;;4912054;29;20063;-93
2022/04/14 12:08:33;;;;;;;6.47;3.00;;;18.50;80.90;;;;;;4895977;29;20048;-94
2022/04/14 12:11:04;;;;;;;7.82;3.20;;;18.60;79.50;;;;;;4918798;29;20060;-91
2022/04/14 12:13:35;;;;;;;9.13;3.10;;;18.80;78.90;;;;;;4897590;29;20066;-89
2022/04/14 12:16:03;;;;;;;6.05;2.65;;;18.90;76.60;;;;;;4904400;29;20056;-91
2022/04/14 12:18:29;;;;;;;7.38;2.53;;;18.90;76.30;;;;;;4898550;29;20111;-93
2022/04/14 12:20:54;;;;;;;5.40;2.75;;;19.10;76.90;;;;;;4887197;29;20084;-91
2022/04/14 12:23:20;;;;;;;8.18;2.67;;;19.10;77.60;;;;;;4903331;29;20059;-96
2022/04/14 12:25:45;;;;;;;9.13;4.22;;;19.10;76.70;;;;;;4898892;29;20044;-92
2022/04/14 12:28:11;;;;;;;8.68;3.83;;;19.00;77.40;;;;;;4900120;29;20078;-90
2022/04/14 12:30:41;;;;;;;10.40;4.30;;;18.90;79.50;;;;;;4892549;29;20068;-92
2022/04/14 12:33:07;;;;;;;8.27;3.60;;;18.90;80.20;;;;;;4902094;29;20051;-90
2022/04/14 12:35:43;;;;;;;8.95;3.53;;;18.80;80.80;;;;;;4905236;29;20273;-91
2022/04/14 12:38:16;;;;;;;8.77;3.50;;;18.70;80.70;;;;;;4883971;29;20096;-91